Terminal Aerodrome Forecast
Issued by NWS New Orleans/Baton Rouge, LA

Home | Current Version | Previous Version | Text Only | Print | Product List | Glossary On
Versions: 1 2 3 4 5 6 7 8 9 10 11 12 13 14 15 16
000
FTUS44 KLIX 141100
TAFBTR
TAF
KBTR 141122Z 1412/1512 VRB03KT P6SM SKC
     FM141400 23006KT P6SM SCT035
     FM141800 24008KT P6SM VCTS BKN035CB
     FM150100 VRB04KT P6SM FEW110 SCT250=

USA.gov is the U.S. government's official web portal to all federal, state and local government web resources and services.